createdAt,value
2018-09-17T00:00:09.848Z,61.28
2018-09-17T00:02:38.074Z,61.36
2018-09-17T00:05:06.244Z,62.05
2018-09-17T00:07:34.418Z,62.56
2018-09-17T00:10:02.603Z,62.22
2018-09-17T00:12:30.764Z,61.54
2018-09-17T00:14:58.939Z,62.22
2018-09-17T00:17:27.147Z,62.03
2018-09-17T00:19:55.291Z,62.49
2018-09-17T00:22:23.478Z,61.97
2018-09-17T00:24:51.663Z,61.19
2018-09-17T00:27:19.830Z,61.85
2018-09-17T00:29:47.998Z,62.41
2018-09-17T00:32:16.166Z,62.34
2018-09-17T00:34:44.342Z,61.90
2018-09-17T00:37:12.506Z,61.78
2018-09-17T00:39:43.142Z,61.43
2018-09-17T00:42:11.361Z,62.43
2018-09-17T00:44:39.524Z,62.30
2018-09-17T00:47:07.702Z,62.52
2018-09-17T00:49:35.895Z,61.90
2018-09-17T00:52:04.092Z,62.86
2018-09-17T00:54:32.267Z,63.06
2018-09-17T00:57:00.422Z,63.26
2018-09-17T00:59:28.604Z,62.60
2018-09-17T01:01:56.815Z,62.70
2018-09-17T01:04:24.974Z,62.15
2018-09-17T01:06:53.167Z,61.89
2018-09-17T01:09:26.659Z,61.91
2018-09-17T01:11:54.837Z,62.64
2018-09-17T01:14:23.029Z,62.43
2018-09-17T01:16:51.232Z,62.91
2018-09-17T01:19:19.426Z,62.09
2018-09-17T01:21:47.608Z,63.15
2018-09-17T01:24:15.782Z,62.29
2018-09-17T01:26:44.047Z,62.21
2018-09-17T01:29:12.258Z,62.90
2018-09-17T01:31:40.492Z,62.44
2018-09-17T01:34:08.647Z,62.68
2018-09-17T01:36:36.845Z,62.72
2018-09-17T01:39:07.451Z,63.05
2018-09-17T01:41:35.627Z,63.11
2018-09-17T01:44:03.808Z,62.88
2018-09-17T01:46:32.016Z,63.49
2018-09-17T01:49:00.222Z,63.17
2018-09-17T01:51:28.387Z,63.06
2018-09-17T01:53:56.596Z,63.23
2018-09-17T01:56:24.742Z,63.06
2018-09-17T01:58:52.905Z,62.34
2018-09-17T02:01:21.088Z,62.64
2018-09-17T02:03:49.316Z,63.53
2018-09-17T02:06:17.498Z,63.00
2018-09-17T02:08:45.763Z,63.70
2018-09-17T02:11:13.918Z,63.38
2018-09-17T02:13:42.095Z,62.83
2018-09-17T02:16:10.267Z,63.11
2018-09-17T02:18:38.438Z,63.35
2018-09-17T02:21:06.814Z,64.04
2018-09-17T02:23:35.087Z,63.84
2018-09-17T02:26:03.264Z,63.61
2018-09-17T02:28:31.486Z,64.37
2018-09-17T02:30:59.656Z,63.54
2018-09-17T02:33:27.830Z,64.32
2018-09-17T02:35:56.020Z,64.17
2018-09-17T02:38:24.174Z,64.14
2018-09-17T02:40:52.444Z,64.04
2018-09-17T02:43:20.610Z,64.22
2018-09-17T02:45:48.771Z,64.13
2018-09-17T02:48:16.967Z,64.30
2018-09-17T02:50:45.131Z,63.64
2018-09-17T02:53:13.308Z,64.42
2018-09-17T02:55:41.487Z,63.17
2018-09-17T02:58:09.667Z,63.83
2018-09-17T03:00:37.834Z,63.99
2018-09-17T03:03:06.144Z,63.81
2018-09-17T03:05:34.299Z,64.11
2018-09-17T03:08:02.519Z,63.53
2018-09-17T03:10:30.704Z,63.86
2018-09-17T03:12:58.903Z,63.33
2018-09-17T03:15:38.390Z,63.71
2018-09-17T03:18:06.575Z,62.88
2018-09-17T03:20:34.720Z,63.64
2018-09-17T03:23:02.976Z,63.65
2018-09-17T03:25:31.175Z,63.83
2018-09-17T03:27:59.367Z,63.83
2018-09-17T03:30:27.537Z,64.09
2018-09-17T03:32:55.718Z,64.78
2018-09-17T03:35:23.938Z,63.86
2018-09-17T03:37:52.107Z,63.99
2018-09-17T03:40:20.266Z,63.47
2018-09-17T03:42:48.435Z,64.20
2018-09-17T03:45:16.632Z,64.64
2018-09-17T03:47:44.799Z,63.83
2018-09-17T03:50:12.970Z,64.30
2018-09-17T03:52:41.134Z,63.70
2018-09-17T03:55:09.303Z,63.87
2018-09-17T03:57:37.482Z,63.61
2018-09-17T04:00:05.747Z,64.86
2018-09-17T04:02:33.938Z,64.28
2018-09-17T04:05:02.199Z,64.50
2018-09-17T04:07:30.358Z,63.37
2018-09-17T04:09:58.554Z,63.72
2018-09-17T04:12:26.731Z,64.25
2018-09-17T04:14:54.887Z,63.60
2018-09-17T04:17:23.088Z,64.05
2018-09-17T04:19:51.302Z,64.60
2018-09-17T04:22:19.545Z,63.64
2018-09-17T04:24:47.741Z,64.41
2018-09-17T04:27:15.940Z,63.60
2018-09-17T04:29:44.110Z,63.97
2018-09-17T04:32:12.283Z,63.40
2018-09-17T04:34:40.479Z,63.59
2018-09-17T04:37:08.658Z,64.29
2018-09-17T04:39:36.918Z,64.45
2018-09-17T04:42:05.059Z,64.43
2018-09-17T04:44:33.235Z,63.68
2018-09-17T04:47:01.469Z,63.92
2018-09-17T04:49:29.749Z,63.88
2018-09-17T04:51:58.004Z,64.17
2018-09-17T04:54:26.151Z,64.43
2018-09-17T04:56:54.381Z,64.59
2018-09-17T04:59:22.538Z,63.78
2018-09-17T05:01:50.691Z,64.11
2018-09-17T05:04:18.834Z,64.74
2018-09-17T05:06:46.995Z,64.00
2018-09-17T05:09:15.166Z,64.47
2018-09-17T05:11:43.339Z,64.78
2018-09-17T05:14:11.499Z,64.72
2018-09-17T05:16:39.658Z,63.96
2018-09-17T05:19:07.810Z,64.97
2018-09-17T05:21:35.994Z,65.05
2018-09-17T05:24:04.202Z,64.34
2018-09-17T05:26:32.358Z,64.62
2018-09-17T05:29:00.533Z,65.59
2018-09-17T05:31:28.686Z,64.59
2018-09-17T05:33:56.922Z,65.34
2018-09-17T05:36:31.742Z,65.38
2018-09-17T05:38:59.919Z,65.53
2018-09-17T05:41:28.088Z,65.51
2018-09-17T05:43:56.803Z,65.59
2018-09-17T05:46:24.970Z,65.89
2018-09-17T05:48:53.207Z,65.85
2018-09-17T05:51:21.448Z,64.83
2018-09-17T05:53:49.652Z,66.17
2018-09-17T05:56:17.766Z,65.40
2018-09-17T05:58:45.946Z,65.50
2018-09-17T06:01:14.123Z,65.25
2018-09-17T06:03:42.266Z,66.03
2018-09-17T06:06:10.608Z,66.14
2018-09-17T06:08:38.891Z,65.71
2018-09-17T06:11:07.090Z,65.51
2018-09-17T06:13:35.235Z,65.62
2018-09-17T06:16:03.422Z,65.85
2018-09-17T06:18:31.578Z,65.35
2018-09-17T06:20:59.795Z,65.44
2018-09-17T06:23:28.102Z,65.30
2018-09-17T06:25:56.142Z,65.75
2018-09-17T06:28:24.310Z,66.59
2018-09-17T06:30:52.467Z,65.60
2018-09-17T06:33:20.659Z,65.49
2018-09-17T06:35:48.959Z,66.13
2018-09-17T06:38:17.164Z,65.88
2018-09-17T06:40:45.311Z,66.39
2018-09-17T06:43:13.475Z,65.76
2018-09-17T06:45:41.647Z,65.96
2018-09-17T06:48:09.837Z,65.65
2018-09-17T06:50:38.027Z,66.08
2018-09-17T06:53:06.217Z,66.38
2018-09-17T06:55:34.642Z,66.21
2018-09-17T06:58:02.933Z,66.61
2018-09-17T07:00:31.180Z,66.43
2018-09-17T07:02:59.338Z,67.12
2018-09-17T07:05:27.513Z,66.30
2018-09-17T07:07:55.670Z,66.96
2018-09-17T07:10:23.994Z,67.09
2018-09-17T07:12:52.162Z,66.85
2018-09-17T07:15:20.514Z,67.38
2018-09-17T07:17:48.699Z,67.13
2018-09-17T07:20:16.868Z,67.01
2018-09-17T07:22:45.047Z,67.21
2018-09-17T07:25:13.287Z,66.70
2018-09-17T07:27:41.395Z,64.59
2018-09-17T07:30:09.698Z,63.27
2018-09-17T07:32:37.900Z,63.84
2018-09-17T07:35:06.159Z,63.41
2018-09-17T07:37:34.346Z,63.69
2018-09-17T07:40:02.499Z,63.51
2018-09-17T07:42:30.679Z,63.62
2018-09-17T07:44:58.894Z,63.61
2018-09-17T07:47:27.055Z,64.31
2018-09-17T07:49:55.239Z,64.33
2018-09-17T07:52:23.444Z,63.92
2018-09-17T07:54:51.634Z,63.41
2018-09-17T07:57:19.820Z,63.53
2018-09-17T07:59:48.018Z,63.09
2018-09-17T08:02:16.205Z,62.61
2018-09-17T08:04:44.371Z,62.24
2018-09-17T08:07:12.553Z,62.77
2018-09-17T08:09:40.725Z,62.33
2018-09-17T08:12:08.925Z,62.81
2018-09-17T08:14:37.106Z,61.61
2018-09-17T08:17:05.369Z,62.66
2018-09-17T08:19:33.497Z,63.13
2018-09-17T08:22:01.701Z,62.47
2018-09-17T08:24:29.976Z,62.15
2018-09-17T08:26:58.175Z,61.29
2018-09-17T08:29:26.363Z,61.53
2018-09-17T08:31:54.599Z,61.22
2018-09-17T08:34:22.780Z,60.64
2018-09-17T08:36:50.947Z,60.53
2018-09-17T08:39:19.116Z,61.39
2018-09-17T08:41:47.262Z,60.94
2018-09-17T08:44:15.412Z,60.89
2018-09-17T08:46:43.595Z,61.13
2018-09-17T08:49:11.755Z,60.37
2018-09-17T08:51:39.932Z,60.03
2018-09-17T08:54:08.142Z,59.64
2018-09-17T08:56:41.835Z,59.09
2018-09-17T08:59:15.380Z,58.79
2018-09-17T09:02:51.751Z,58.05
2018-09-17T09:05:25.430Z,57.63
2018-09-17T09:07:54.790Z,56.99
2018-09-17T09:10:28.318Z,56.77
2018-09-17T09:13:02.100Z,56.78
2018-09-17T09:15:36.148Z,57.16
2018-09-17T09:18:05.331Z,57.97
2018-09-17T09:20:33.583Z,58.26
2018-09-17T09:23:01.793Z,57.03
2018-09-17T09:25:29.983Z,56.60
2018-09-17T09:27:58.139Z,57.30
2018-09-17T09:30:26.298Z,56.70
2018-09-17T09:32:54.507Z,55.83
2018-09-17T09:35:23.026Z,55.98
2018-09-17T09:37:51.507Z,56.72
2018-09-17T09:40:19.686Z,56.64
2018-09-17T09:42:47.834Z,57.07
2018-09-17T09:45:16.859Z,56.42
2018-09-17T09:47:45.727Z,56.80
2018-09-17T09:50:13.920Z,55.83
2018-09-17T09:52:42.263Z,55.54
2018-09-17T09:55:10.392Z,56.60
2018-09-17T09:57:38.570Z,55.44
2018-09-17T10:00:12.892Z,55.01
2018-09-17T10:02:46.359Z,54.42
2018-09-17T10:05:14.583Z,55.39
2018-09-17T10:07:42.774Z,55.71
2018-09-17T10:10:16.138Z,55.86
2018-09-17T10:12:49.659Z,54.35
2018-09-17T10:16:23.947Z,52.96
2018-09-17T10:18:57.463Z,51.40
2018-09-17T10:21:25.683Z,51.75
2018-09-17T10:23:53.855Z,49.48
2018-09-17T10:26:22.029Z,51.48
2018-09-17T10:28:50.182Z,50.30
2018-09-17T10:31:18.373Z,50.92
2018-09-17T10:33:46.650Z,49.13
2018-09-17T10:36:14.815Z,49.44
2018-09-17T10:38:42.974Z,49.12
2018-09-17T10:41:11.171Z,47.95
2018-09-17T10:43:39.375Z,48.91
2018-09-17T10:46:07.527Z,47.93
2018-09-17T10:48:35.690Z,46.86
2018-09-17T10:51:03.851Z,47.69
2018-09-17T10:53:32.026Z,45.83
2018-09-17T10:56:00.199Z,45.21
2018-09-17T10:58:28.388Z,45.51
2018-09-17T11:00:56.568Z,45.82
2018-09-17T11:03:24.746Z,45.03
2018-09-17T11:05:52.918Z,44.17
2018-09-17T11:08:21.135Z,45.56
2018-09-17T11:10:49.343Z,44.83
2018-09-17T11:13:17.519Z,44.14
2018-09-17T11:15:47.366Z,42.16
2018-09-17T11:18:16.030Z,42.54
2018-09-17T11:20:44.931Z,43.34
2018-09-17T11:23:13.107Z,41.57
2018-09-17T11:25:41.314Z,43.31
2018-09-17T11:28:09.534Z,42.30
2018-09-17T11:30:37.709Z,42.64
2018-09-17T11:33:05.991Z,42.43
2018-09-17T11:35:34.186Z,40.45
2018-09-17T11:38:02.385Z,40.72
2018-09-17T11:40:30.544Z,40.20
2018-09-17T11:42:58.727Z,40.30
2018-09-17T11:45:26.944Z,39.74
2018-09-17T11:47:55.103Z,38.87
2018-09-17T11:50:23.271Z,38.24
2018-09-17T11:52:51.535Z,39.41
2018-09-17T11:55:19.766Z,39.97
2018-09-17T11:57:47.935Z,38.38
2018-09-17T12:00:20.284Z,38.89
2018-09-17T12:02:53.867Z,38.53
2018-09-17T12:05:27.372Z,39.15
2018-09-17T12:07:55.531Z,38.76
2018-09-17T12:10:23.679Z,37.37
2018-09-17T12:12:51.845Z,37.83
2018-09-17T12:15:20.022Z,37.91
2018-09-17T12:17:48.215Z,35.63
2018-09-17T12:20:16.366Z,37.32
2018-09-17T12:22:44.551Z,36.74
2018-09-17T12:25:12.712Z,36.70
2018-09-17T12:27:40.915Z,35.84
2018-09-17T12:30:09.076Z,34.62
2018-09-17T12:32:37.226Z,35.65
2018-09-17T12:35:05.407Z,35.81
2018-09-17T12:37:33.618Z,34.75
2018-09-17T12:40:01.775Z,34.64
2018-09-17T12:42:29.960Z,35.96
2018-09-17T12:44:58.123Z,34.77
2018-09-17T12:47:26.290Z,32.67
2018-09-17T12:49:54.451Z,32.86
2018-09-17T12:52:22.620Z,32.50
2018-09-17T12:54:50.784Z,32.95
2018-09-17T12:57:19.014Z,32.78
2018-09-17T12:59:47.115Z,34.14
2018-09-17T13:02:15.663Z,32.57
2018-09-17T13:04:43.823Z,33.62
2018-09-17T13:07:11.982Z,32.62
2018-09-17T13:09:40.152Z,31.76
2018-09-17T13:12:08.336Z,32.29
2018-09-17T13:14:36.507Z,30.68
2018-09-17T13:17:04.715Z,30.74
2018-09-17T13:19:32.893Z,30.05
2018-09-17T13:22:01.067Z,29.32
2018-09-17T13:24:29.239Z,29.56
2018-09-17T13:26:57.428Z,29.68
2018-09-17T13:29:25.674Z,30.63
2018-09-17T13:31:53.908Z,31.12
2018-09-17T13:34:22.003Z,31.77
2018-09-17T13:36:50.236Z,30.61
2018-09-17T13:39:18.409Z,32.24
2018-09-17T13:41:46.575Z,32.02
2018-09-17T13:44:14.840Z,31.72
2018-09-17T13:46:42.950Z,30.78
2018-09-17T13:49:11.103Z,30.68
2018-09-17T13:51:39.306Z,30.73
2018-09-17T13:54:07.480Z,28.92
2018-09-17T13:56:35.653Z,28.98
2018-09-17T13:59:03.912Z,28.30
2018-09-17T14:01:32.081Z,27.01
2018-09-17T14:04:00.277Z,27.37
2018-09-17T14:06:28.503Z,27.25
2018-09-17T14:08:56.659Z,28.90
2018-09-17T14:11:24.827Z,29.39
2018-09-17T14:13:53.035Z,29.73
2018-09-17T14:16:26.577Z,29.26
2018-09-17T14:18:54.749Z,29.75
2018-09-17T14:21:22.911Z,30.22
2018-09-17T14:23:51.077Z,31.98
2018-09-17T14:26:19.379Z,32.75
2018-09-17T14:28:47.418Z,31.04
2018-09-17T14:31:15.631Z,32.57
2018-09-17T14:33:43.810Z,32.76
2018-09-17T14:36:12.004Z,32.83
2018-09-17T14:38:40.167Z,32.55
2018-09-17T14:41:08.303Z,34.65
2018-09-17T14:43:36.546Z,34.16
2018-09-17T14:46:04.670Z,33.64
2018-09-17T14:48:32.819Z,34.63
2018-09-17T14:51:01.015Z,37.26
2018-09-17T14:53:29.402Z,35.13
2018-09-17T14:55:57.518Z,34.83
2018-09-17T14:58:25.894Z,36.01
2018-09-17T15:00:54.075Z,35.43
2018-09-17T15:03:22.337Z,34.79
2018-09-17T15:05:50.575Z,35.26
2018-09-17T15:08:18.905Z,34.74
2018-09-17T15:10:47.045Z,36.33
2018-09-17T15:13:15.182Z,38.69
2018-09-17T15:15:50.455Z,36.47
2018-09-17T15:18:18.885Z,35.83
2018-09-17T15:20:47.130Z,35.80
2018-09-17T15:23:15.354Z,36.27
2018-09-17T15:25:43.559Z,37.49
2018-09-17T15:28:11.880Z,36.76
2018-09-17T15:30:39.997Z,36.71
2018-09-17T15:33:08.272Z,37.27
2018-09-17T15:35:36.448Z,38.35
2018-09-17T15:38:04.750Z,39.21
2018-09-17T15:40:32.946Z,38.34
2018-09-17T15:43:01.185Z,37.09
2018-09-17T15:45:29.353Z,37.27
2018-09-17T15:47:58.147Z,39.10
2018-09-17T15:50:26.398Z,39.10
2018-09-17T15:52:54.609Z,38.02
2018-09-17T15:55:22.779Z,39.22
2018-09-17T15:57:50.990Z,39.27
2018-09-17T16:00:19.177Z,40.30
2018-09-17T16:02:47.432Z,40.01
2018-09-17T16:05:15.598Z,39.61
2018-09-17T16:07:43.835Z,39.89
2018-09-17T16:10:12.007Z,40.82
2018-09-17T16:12:40.171Z,41.25
2018-09-17T16:15:08.342Z,42.27
2018-09-17T16:17:36.502Z,43.53
2018-09-17T16:20:04.822Z,43.83
2018-09-17T16:22:32.905Z,44.58
2018-09-17T16:25:01.065Z,45.22
2018-09-17T16:27:29.226Z,44.81
2018-09-17T16:29:57.418Z,43.58
2018-09-17T16:32:25.598Z,44.76
2018-09-17T16:34:53.774Z,45.36
2018-09-17T16:37:21.960Z,45.57
2018-09-17T16:39:50.140Z,46.04
2018-09-17T16:42:18.320Z,47.02
2018-09-17T16:44:46.515Z,48.02
2018-09-17T16:47:14.708Z,46.19
2018-09-17T16:49:42.854Z,46.92
2018-09-17T16:52:11.019Z,47.13
2018-09-17T16:54:39.186Z,48.86
2018-09-17T16:57:07.359Z,49.07
2018-09-17T16:59:35.546Z,49.46
2018-09-17T17:02:03.716Z,48.47
2018-09-17T17:04:31.879Z,49.95
2018-09-17T17:07:00.047Z,48.94
2018-09-17T17:09:28.215Z,49.98
2018-09-17T17:11:56.474Z,50.73
2018-09-17T17:14:24.567Z,50.07
2018-09-17T17:16:52.736Z,50.94
2018-09-17T17:19:20.911Z,50.30
2018-09-17T17:21:49.086Z,50.38
2018-09-17T17:24:17.353Z,51.06
2018-09-17T17:26:45.467Z,51.24
2018-09-17T17:29:13.686Z,50.39
2018-09-17T17:31:41.826Z,51.18
2018-09-17T17:34:10.111Z,51.34
2018-09-17T17:36:38.222Z,50.65
2018-09-17T17:39:08.485Z,50.36
2018-09-17T17:41:36.660Z,50.95
2018-09-17T17:44:04.834Z,51.27
2018-09-17T17:46:33.399Z,51.29
2018-09-17T17:49:01.524Z,51.29
2018-09-17T17:51:29.674Z,51.75
2018-09-17T17:53:57.875Z,51.12
2018-09-17T17:56:26.140Z,51.84
2018-09-17T17:58:54.306Z,51.17
2018-09-17T18:01:22.544Z,52.29
2018-09-17T18:03:50.734Z,51.26
2018-09-17T18:06:18.856Z,51.45
2018-09-17T18:08:47.019Z,52.21
2018-09-17T18:11:15.194Z,52.27
2018-09-17T18:13:43.367Z,52.22
2018-09-17T18:16:11.545Z,53.13
2018-09-17T18:18:39.819Z,53.29
2018-09-17T18:21:08.310Z,53.65
2018-09-17T18:23:36.858Z,53.97
2018-09-17T18:26:05.140Z,53.98
2018-09-17T18:28:33.315Z,53.75
2018-09-17T18:31:01.531Z,54.22
2018-09-17T18:33:29.700Z,53.65
2018-09-17T18:35:57.880Z,53.44
2018-09-17T18:38:26.098Z,53.25
2018-09-17T18:40:54.280Z,53.94
2018-09-17T18:43:22.452Z,53.77
2018-09-17T18:45:50.667Z,52.65
2018-09-17T18:48:18.939Z,53.10
2018-09-17T18:50:47.027Z,52.86
2018-09-17T18:53:15.180Z,53.12
2018-09-17T18:55:43.381Z,52.98
2018-09-17T18:58:11.554Z,51.90
2018-09-17T19:00:39.718Z,52.67
2018-09-17T19:03:07.921Z,51.71
2018-09-17T19:05:36.063Z,51.28
2018-09-17T19:08:04.239Z,51.84
2018-09-17T19:10:32.411Z,50.54
2018-09-17T19:13:00.578Z,50.97
2018-09-17T19:15:34.114Z,51.74
2018-09-17T19:18:07.670Z,50.44
2018-09-17T19:20:35.994Z,50.97
2018-09-17T19:23:09.503Z,51.00
2018-09-17T19:25:37.682Z,50.68
2018-09-17T19:28:11.281Z,51.64
2018-09-17T19:30:39.427Z,50.73
2018-09-17T19:33:07.601Z,51.49
2018-09-17T19:35:35.800Z,50.67
2018-09-17T19:38:09.333Z,50.82
2018-09-17T19:40:37.480Z,50.30
2018-09-17T19:43:05.661Z,50.52
2018-09-17T19:45:39.217Z,50.95
2018-09-17T19:48:07.473Z,51.45
2018-09-17T19:50:40.999Z,49.93
2018-09-17T19:53:09.198Z,50.72
2018-09-17T19:55:37.365Z,51.27
2018-09-17T19:58:10.966Z,50.10
2018-09-17T20:00:39.330Z,50.23
2018-09-17T20:03:07.354Z,50.72
2018-09-17T20:05:40.943Z,50.36
2018-09-17T20:08:09.127Z,50.79
2018-09-17T20:10:37.285Z,51.46
2018-09-17T20:13:05.476Z,51.62
2018-09-17T20:15:33.638Z,50.87
2018-09-17T20:18:01.796Z,52.30
2018-09-17T20:20:29.977Z,51.23
2018-09-17T20:22:58.223Z,51.22
2018-09-17T20:25:26.347Z,52.03
2018-09-17T20:27:54.506Z,51.22
2018-09-17T20:30:22.690Z,51.35
2018-09-17T20:32:51.150Z,50.85
2018-09-17T20:35:19.506Z,50.98
2018-09-17T20:37:47.692Z,50.83
2018-09-17T20:40:15.885Z,51.44
2018-09-17T20:42:44.046Z,50.86
2018-09-17T20:45:12.264Z,51.30
2018-09-17T20:47:40.590Z,50.72
2018-09-17T20:50:08.780Z,51.08
2018-09-17T20:52:36.944Z,51.01
2018-09-17T20:55:05.166Z,50.92
2018-09-17T20:57:33.326Z,50.69
2018-09-17T21:00:01.560Z,51.19
2018-09-17T21:02:29.769Z,52.18
2018-09-17T21:04:57.923Z,51.89
2018-09-17T21:07:26.180Z,50.91
2018-09-17T21:09:54.280Z,50.89
2018-09-17T21:12:22.471Z,52.43
2018-09-17T21:14:50.637Z,52.47
2018-09-17T21:17:18.792Z,51.75
2018-09-17T21:19:46.968Z,51.96
2018-09-17T21:22:15.153Z,51.65
2018-09-17T21:24:43.439Z,51.08
2018-09-17T21:27:11.550Z,51.75
2018-09-17T21:29:39.726Z,52.77
2018-09-17T21:32:07.894Z,51.77
2018-09-17T21:34:36.079Z,52.09
2018-09-17T21:37:04.327Z,52.45
2018-09-17T21:39:32.465Z,51.77
2018-09-17T21:42:00.623Z,51.94
2018-09-17T21:44:28.826Z,51.61
2018-09-17T21:46:56.994Z,52.50
2018-09-17T21:49:25.163Z,52.32
2018-09-17T21:54:34.299Z,53.31
2018-09-17T21:57:02.468Z,52.85
2018-09-17T21:59:30.643Z,52.71
2018-09-17T22:01:58.803Z,53.05
2018-09-17T22:04:27.020Z,52.33
2018-09-17T22:06:55.160Z,53.62
2018-09-17T22:09:23.321Z,54.00
2018-09-17T22:11:51.495Z,54.06
2018-09-17T22:14:19.666Z,54.06
2018-09-17T22:16:47.823Z,54.46
2018-09-17T22:19:15.994Z,53.24
2018-09-17T22:21:44.203Z,53.54
2018-09-17T22:24:12.364Z,54.07
2018-09-17T22:26:40.539Z,54.28
2018-09-17T22:29:08.835Z,54.49
2018-09-17T22:31:36.867Z,54.45
2018-09-17T22:34:05.100Z,54.61
2018-09-17T22:36:33.231Z,54.68
2018-09-17T22:39:01.398Z,54.78
2018-09-17T22:41:29.593Z,55.01
2018-09-17T22:43:57.755Z,55.19
2018-09-17T22:46:25.932Z,54.19
2018-09-17T22:48:54.100Z,55.28
2018-09-17T22:51:22.280Z,54.57
2018-09-17T22:53:50.461Z,54.54
2018-09-17T22:56:18.651Z,55.74
2018-09-17T22:58:47.002Z,55.57
2018-09-17T23:01:15.172Z,55.48
2018-09-17T23:03:43.322Z,55.62
2018-09-17T23:06:11.506Z,54.83
2018-09-17T23:08:39.689Z,55.76
2018-09-17T23:11:08.043Z,55.42
2018-09-17T23:13:36.283Z,56.39
2018-09-17T23:16:04.460Z,56.57
2018-09-17T23:18:32.618Z,56.71
2018-09-17T23:21:00.798Z,55.43
2018-09-17T23:23:29.000Z,55.43
2018-09-17T23:25:57.164Z,56.29
2018-09-17T23:28:25.345Z,56.52
2018-09-17T23:30:53.518Z,57.22
2018-09-17T23:33:21.710Z,57.54
2018-09-17T23:35:49.891Z,57.03
2018-09-17T23:38:18.083Z,56.44
2018-09-17T23:40:46.254Z,57.14
2018-09-17T23:43:15.263Z,57.31
2018-09-17T23:45:43.443Z,56.38
2018-09-17T23:48:11.620Z,57.19
2018-09-17T23:50:39.791Z,56.75
2018-09-17T23:53:07.967Z,56.89
2018-09-17T23:55:36.166Z,58.03
2018-09-17T23:58:04.358Z,57.44
